sensor_id;sensor_type;location;lat;lon;timestamp;temperature;humidity
19728;DHT22;10015;52.530;13.390;2023-09-19T00:00:46;20.70;99.90
19728;DHT22;10015;52.530;13.390;2023-09-19T00:03:16;20.70;99.90
19728;DHT22;10015;52.530;13.390;2023-09-19T00:05:43;20.70;99.90
19728;DHT22;10015;52.530;13.390;2023-09-19T00:08:13;20.70;99.90
19728;DHT22;10015;52.530;13.390;2023-09-19T00:10:43;20.50;99.90
19728;DHT22;10015;52.530;13.390;2023-09-19T00:13:09;20.40;99.90
19728;DHT22;10015;52.530;13.390;2023-09-19T00:15:41;20.30;99.90
19728;DHT22;10015;52.530;13.390;2023-09-19T00:18:08;20.30;99.90
19728;DHT22;10015;52.530;13.390;2023-09-19T00:20:36;20.30;99.90
19728;DHT22;10015;52.530;13.390;2023-09-19T00:23:02;20.30;99.90
19728;DHT22;10015;52.530;13.390;2023-09-19T00:25:30;20.30;99.90
19728;DHT22;10015;52.530;13.390;2023-09-19T00:27:58;20.30;99.90
19728;DHT22;10015;52.530;13.390;2023-09-19T00:30:24;20.30;99.90
19728;DHT22;10015;52.530;13.390;2023-09-19T00:32:50;20.40;99.90
19728;DHT22;10015;52.530;13.390;2023-09-19T00:35:23;20.40;99.90
19728;DHT22;10015;52.530;13.390;2023-09-19T00:37:53;20.40;99.90
19728;DHT22;10015;52.530;13.390;2023-09-19T00:40:19;20.40;99.90
19728;DHT22;10015;52.530;13.390;2023-09-19T00:42:48;20.30;99.90
19728;DHT22;10015;52.530;13.390;2023-09-19T00:45:15;20.30;99.90
19728;DHT22;10015;52.530;13.390;2023-09-19T00:47:48;20.30;99.90
19728;DHT22;10015;52.530;13.390;2023-09-19T00:50:22;20.30;99.90
19728;DHT22;10015;52.530;13.390;2023-09-19T00:52:50;20.20;99.90
19728;DHT22;10015;52.530;13.390;2023-09-19T00:55:18;20.20;99.90
19728;DHT22;10015;52.530;13.390;2023-09-19T00:57:46;20.30;99.90
19728;DHT22;10015;52.530;13.390;2023-09-19T01:00:15;20.20;99.90
19728;DHT22;10015;52.530;13.390;2023-09-19T01:02:45;20.20;99.90
19728;DHT22;10015;52.530;13.390;2023-09-19T01:05:13;20.30;99.90
19728;DHT22;10015;52.530;13.390;2023-09-19T01:07:39;20.30;99.90
19728;DHT22;10015;52.530;13.390;2023-09-19T01:10:10;20.30;99.90
19728;DHT22;10015;52.530;13.390;2023-09-19T01:29:48;20.20;99.90
19728;DHT22;10015;52.530;13.390;2023-09-19T01:32:22;20.30;99.90
19728;DHT22;10015;52.530;13.390;2023-09-19T01:34:52;20.30;99.90
19728;DHT22;10015;52.530;13.390;2023-09-19T01:37:21;20.30;99.90
19728;DHT22;10015;52.530;13.390;2023-09-19T01:40:02;20.30;99.90
19728;DHT22;10015;52.530;13.390;2023-09-19T01:43:02;20.30;99.90
19728;DHT22;10015;52.530;13.390;2023-09-19T01:51:09;20.40;99.90
19728;DHT22;10015;52.530;13.390;2023-09-19T01:54:09;20.40;99.90
19728;DHT22;10015;52.530;13.390;2023-09-19T01:56:48;20.50;99.90
19728;DHT22;10015;52.530;13.390;2023-09-19T01:59:21;20.50;99.90
19728;DHT22;10015;52.530;13.390;2023-09-19T02:01:49;20.40;99.90
19728;DHT22;10015;52.530;13.390;2023-09-19T02:04:17;20.40;99.90
19728;DHT22;10015;52.530;13.390;2023-09-19T02:06:43;20.40;99.90
19728;DHT22;10015;52.530;13.390;2023-09-19T02:09:09;20.40;99.90
19728;DHT22;10015;52.530;13.390;2023-09-19T02:11:35;20.40;99.90
19728;DHT22;10015;52.530;13.390;2023-09-19T02:14:02;20.40;99.90
19728;DHT22;10015;52.530;13.390;2023-09-19T02:16:30;20.40;99.90
19728;DHT22;10015;52.530;13.390;2023-09-19T02:18:56;20.30;99.90
19728;DHT22;10015;52.530;13.390;2023-09-19T02:21:23;20.40;99.90
19728;DHT22;10015;52.530;13.390;2023-09-19T02:23:48;20.40;99.90
19728;DHT22;10015;52.530;13.390;2023-09-19T02:26:14;20.50;99.90
19728;DHT22;10015;52.530;13.390;2023-09-19T02:28:41;20.50;99.90
19728;DHT22;10015;52.530;13.390;2023-09-19T02:31:09;20.50;99.90
19728;DHT22;10015;52.530;13.390;2023-09-19T02:33:34;20.50;99.90
19728;DHT22;10015;52.530;13.390;2023-09-19T02:36:01;20.50;99.90
19728;DHT22;10015;52.530;13.390;2023-09-19T02:38:30;20.50;99.90
19728;DHT22;10015;52.530;13.390;2023-09-19T02:40:56;20.40;99.90
19728;DHT22;10015;52.530;13.390;2023-09-19T02:43:23;20.40;99.90
19728;DHT22;10015;52.530;13.390;2023-09-19T02:45:50;20.40;99.90
19728;DHT22;10015;52.530;13.390;2023-09-19T02:48:19;20.40;99.90
19728;DHT22;10015;52.530;13.390;2023-09-19T02:50:52;20.30;99.90
19728;DHT22;10015;52.530;13.390;2023-09-19T02:53:18;20.30;99.90
19728;DHT22;10015;52.530;13.390;2023-09-19T02:55:44;20.30;99.90
19728;DHT22;10015;52.530;13.390;2023-09-19T02:58:10;20.30;99.90
19728;DHT22;10015;52.530;13.390;2023-09-19T03:00:38;20.30;99.90
19728;DHT22;10015;52.530;13.390;2023-09-19T03:03:04;20.30;99.90
19728;DHT22;10015;52.530;13.390;2023-09-19T03:05:32;20.30;99.90
19728;DHT22;10015;52.530;13.390;2023-09-19T03:07:59;20.30;99.90
19728;DHT22;10015;52.530;13.390;2023-09-19T03:10:29;20.30;99.90
19728;DHT22;10015;52.530;13.390;2023-09-19T03:12:58;20.30;99.90
19728;DHT22;10015;52.530;13.390;2023-09-19T03:15:26;20.30;99.90
19728;DHT22;10015;52.530;13.390;2023-09-19T03:17:52;20.20;99.90
19728;DHT22;10015;52.530;13.390;2023-09-19T03:20:21;20.30;99.90
19728;DHT22;10015;52.530;13.390;2023-09-19T03:22:48;20.20;99.90
19728;DHT22;10015;52.530;13.390;2023-09-19T03:25:15;20.20;99.90
19728;DHT22;10015;52.530;13.390;2023-09-19T03:27:47;20.30;99.90
19728;DHT22;10015;52.530;13.390;2023-09-19T03:30:14;20.30;99.90
19728;DHT22;10015;52.530;13.390;2023-09-19T03:32:46;20.30;99.90
19728;DHT22;10015;52.530;13.390;2023-09-19T03:35:13;20.30;99.90
19728;DHT22;10015;52.530;13.390;2023-09-19T03:37:42;20.30;99.90
19728;DHT22;10015;52.530;13.390;2023-09-19T03:40:10;20.30;99.90
19728;DHT22;10015;52.530;13.390;2023-09-19T03:42:41;20.30;99.90
19728;DHT22;10015;52.530;13.390;2023-09-19T03:45:09;20.30;99.90
19728;DHT22;10015;52.530;13.390;2023-09-19T03:47:40;20.30;99.90
19728;DHT22;10015;52.530;13.390;2023-09-19T03:50:08;20.30;99.90
19728;DHT22;10015;52.530;13.390;2023-09-19T03:52:37;20.20;99.90
19728;DHT22;10015;52.530;13.390;2023-09-19T03:55:03;20.20;99.90
19728;DHT22;10015;52.530;13.390;2023-09-19T03:57:30;20.20;99.90
19728;DHT22;10015;52.530;13.390;2023-09-19T03:59:57;20.30;99.90
19728;DHT22;10015;52.530;13.390;2023-09-19T04:02:24;20.30;99.90
19728;DHT22;10015;52.530;13.390;2023-09-19T04:04:52;20.30;99.90
19728;DHT22;10015;52.530;13.390;2023-09-19T04:07:18;20.20;99.90
19728;DHT22;10015;52.530;13.390;2023-09-19T04:09:49;20.20;99.90
19728;DHT22;10015;52.530;13.390;2023-09-19T04:12:15;20.20;99.90
19728;DHT22;10015;52.530;13.390;2023-09-19T04:14:42;20.20;99.90
19728;DHT22;10015;52.530;13.390;2023-09-19T04:17:10;20.20;99.90
19728;DHT22;10015;52.530;13.390;2023-09-19T04:19:37;20.20;99.90
19728;DHT22;10015;52.530;13.390;2023-09-19T04:22:04;20.20;99.90
19728;DHT22;10015;52.530;13.390;2023-09-19T04:24:30;20.20;99.90
19728;DHT22;10015;52.530;13.390;2023-09-19T04:26:57;20.20;99.90
19728;DHT22;10015;52.530;13.390;2023-09-19T04:29:25;20.20;99.90
19728;DHT22;10015;52.530;13.390;2023-09-19T04:31:53;20.20;99.90
19728;DHT22;10015;52.530;13.390;2023-09-19T04:34:19;20.20;99.90
19728;DHT22;10015;52.530;13.390;2023-09-19T04:36:45;20.20;99.90
19728;DHT22;10015;52.530;13.390;2023-09-19T04:39:11;20.20;99.90
19728;DHT22;10015;52.530;13.390;2023-09-19T04:41:38;20.20;99.90
19728;DHT22;10015;52.530;13.390;2023-09-19T04:44:07;20.10;99.90
19728;DHT22;10015;52.530;13.390;2023-09-19T04:46:36;20.10;99.90
19728;DHT22;10015;52.530;13.390;2023-09-19T04:49:02;20.20;99.90
19728;DHT22;10015;52.530;13.390;2023-09-19T04:51:28;20.10;99.90
19728;DHT22;10015;52.530;13.390;2023-09-19T04:53:55;20.10;99.90
19728;DHT22;10015;52.530;13.390;2023-09-19T04:56:21;20.00;99.90
19728;DHT22;10015;52.530;13.390;2023-09-19T04:58:49;20.30;99.90
19728;DHT22;10015;52.530;13.390;2023-09-19T05:01:15;20.70;99.90
19728;DHT22;10015;52.530;13.390;2023-09-19T05:03:41;21.00;99.90
19728;DHT22;10015;52.530;13.390;2023-09-19T05:06:08;21.30;99.90
19728;DHT22;10015;52.530;13.390;2023-09-19T05:08:34;21.50;99.90
19728;DHT22;10015;52.530;13.390;2023-09-19T05:11:02;21.60;99.90
19728;DHT22;10015;52.530;13.390;2023-09-19T05:13:28;21.70;99.90
19728;DHT22;10015;52.530;13.390;2023-09-19T05:15:54;21.80;99.90
19728;DHT22;10015;52.530;13.390;2023-09-19T05:18:20;21.80;99.90
19728;DHT22;10015;52.530;13.390;2023-09-19T05:20:47;21.80;99.90
19728;DHT22;10015;52.530;13.390;2023-09-19T05:23:15;21.90;99.90
19728;DHT22;10015;52.530;13.390;2023-09-19T05:25:41;22.00;99.90
19728;DHT22;10015;52.530;13.390;2023-09-19T05:28:10;22.20;99.90
19728;DHT22;10015;52.530;13.390;2023-09-19T05:30:41;22.30;99.90
19728;DHT22;10015;52.530;13.390;2023-09-19T05:33:09;22.30;99.90
19728;DHT22;10015;52.530;13.390;2023-09-19T05:35:37;22.30;99.90
19728;DHT22;10015;52.530;13.390;2023-09-19T05:38:05;22.30;99.90
19728;DHT22;10015;52.530;13.390;2023-09-19T05:40:35;22.20;99.90
19728;DHT22;10015;52.530;13.390;2023-09-19T05:43:01;22.20;99.90
19728;DHT22;10015;52.530;13.390;2023-09-19T05:45:31;22.20;99.90
19728;DHT22;10015;52.530;13.390;2023-09-19T05:48:11;22.30;99.90
19728;DHT22;10015;52.530;13.390;2023-09-19T05:50:39;22.30;99.90
19728;DHT22;10015;52.530;13.390;2023-09-19T05:53:05;22.30;99.90
19728;DHT22;10015;52.530;13.390;2023-09-19T05:55:33;22.30;99.90
19728;DHT22;10015;52.530;13.390;2023-09-19T05:58:00;22.40;99.90
19728;DHT22;10015;52.530;13.390;2023-09-19T06:00:26;22.40;99.90
19728;DHT22;10015;52.530;13.390;2023-09-19T06:02:58;22.40;99.90
19728;DHT22;10015;52.530;13.390;2023-09-19T06:05:26;22.50;99.90
19728;DHT22;10015;52.530;13.390;2023-09-19T06:07:52;22.60;99.90
19728;DHT22;10015;52.530;13.390;2023-09-19T06:10:19;22.70;99.90
19728;DHT22;10015;52.530;13.390;2023-09-19T06:12:47;22.80;99.90
19728;DHT22;10015;52.530;13.390;2023-09-19T06:15:14;22.80;99.90
19728;DHT22;10015;52.530;13.390;2023-09-19T06:17:49;22.80;99.90
19728;DHT22;10015;52.530;13.390;2023-09-19T06:20:17;22.80;99.90
19728;DHT22;10015;52.530;13.390;2023-09-19T06:22:44;22.80;99.90
19728;DHT22;10015;52.530;13.390;2023-09-19T06:25:13;22.80;99.90
19728;DHT22;10015;52.530;13.390;2023-09-19T06:27:46;22.80;99.90
19728;DHT22;10015;52.530;13.390;2023-09-19T06:30:13;22.90;99.90
19728;DHT22;10015;52.530;13.390;2023-09-19T06:32:43;22.90;99.90
19728;DHT22;10015;52.530;13.390;2023-09-19T06:35:15;23.10;99.90
19728;DHT22;10015;52.530;13.390;2023-09-19T06:37:42;23.20;99.90
19728;DHT22;10015;52.530;13.390;2023-09-19T06:40:13;23.40;99.90
19728;DHT22;10015;52.530;13.390;2023-09-19T06:42:46;23.60;99.90
19728;DHT22;10015;52.530;13.390;2023-09-19T06:45:14;23.90;99.90
19728;DHT22;10015;52.530;13.390;2023-09-19T06:47:49;24.10;99.90
19728;DHT22;10015;52.530;13.390;2023-09-19T06:50:21;24.40;99.90
19728;DHT22;10015;52.530;13.390;2023-09-19T06:52:52;24.60;99.90
19728;DHT22;10015;52.530;13.390;2023-09-19T06:55:22;24.70;99.90
19728;DHT22;10015;52.530;13.390;2023-09-19T06:57:51;24.90;99.90
19728;DHT22;10015;52.530;13.390;2023-09-19T07:00:17;25.10;99.90
19728;DHT22;10015;52.530;13.390;2023-09-19T07:03:05;25.20;99.90
19728;DHT22;10015;52.530;13.390;2023-09-19T07:05:39;25.50;99.90
19728;DHT22;10015;52.530;13.390;2023-09-19T07:08:07;25.70;99.90
19728;DHT22;10015;52.530;13.390;2023-09-19T07:10:36;26.00;99.90
19728;DHT22;10015;52.530;13.390;2023-09-19T07:13:06;26.20;99.90
19728;DHT22;10015;52.530;13.390;2023-09-19T07:15:39;26.30;99.90
19728;DHT22;10015;52.530;13.390;2023-09-19T07:18:06;26.40;99.90
19728;DHT22;10015;52.530;13.390;2023-09-19T07:20:36;26.40;99.90
19728;DHT22;10015;52.530;13.390;2023-09-19T07:23:04;26.30;99.90
19728;DHT22;10015;52.530;13.390;2023-09-19T07:25:30;26.20;99.90
19728;DHT22;10015;52.530;13.390;2023-09-19T07:28:00;26.00;99.90
19728;DHT22;10015;52.530;13.390;2023-09-19T07:30:26;25.80;99.90
19728;DHT22;10015;52.530;13.390;2023-09-19T07:32:54;25.70;99.90
19728;DHT22;10015;52.530;13.390;2023-09-19T07:35:24;25.50;99.90
19728;DHT22;10015;52.530;13.390;2023-09-19T07:37:51;25.30;99.90
19728;DHT22;10015;52.530;13.390;2023-09-19T07:40:19;25.00;99.90
19728;DHT22;10015;52.530;13.390;2023-09-19T07:42:46;24.80;99.90
19728;DHT22;10015;52.530;13.390;2023-09-19T07:45:13;24.70;99.90
19728;DHT22;10015;52.530;13.390;2023-09-19T07:47:50;24.60;99.90
19728;DHT22;10015;52.530;13.390;2023-09-19T07:50:18;24.50;99.90
19728;DHT22;10015;52.530;13.390;2023-09-19T07:52:51;24.40;99.90
19728;DHT22;10015;52.530;13.390;2023-09-19T07:55:20;24.30;99.90
19728;DHT22;10015;52.530;13.390;2023-09-19T07:57:51;24.30;99.90
19728;DHT22;10015;52.530;13.390;2023-09-19T08:00:18;24.40;99.90
19728;DHT22;10015;52.530;13.390;2023-09-19T08:02:45;24.50;99.90
19728;DHT22;10015;52.530;13.390;2023-09-19T08:05:12;24.60;99.90
19728;DHT22;10015;52.530;13.390;2023-09-19T08:07:42;24.70;99.90
19728;DHT22;10015;52.530;13.390;2023-09-19T08:10:09;24.70;99.90
19728;DHT22;10015;52.530;13.390;2023-09-19T08:12:45;24.60;99.90
19728;DHT22;10015;52.530;13.390;2023-09-19T08:15:19;24.50;99.90
19728;DHT22;10015;52.530;13.390;2023-09-19T08:17:48;24.60;99.90
19728;DHT22;10015;52.530;13.390;2023-09-19T08:20:19;24.60;99.90
19728;DHT22;10015;52.530;13.390;2023-09-19T08:23:09;24.60;99.90
19728;DHT22;10015;52.530;13.390;2023-09-19T08:25:35;24.60;99.90
19728;DHT22;10015;52.530;13.390;2023-09-19T08:28:01;24.50;99.90
19728;DHT22;10015;52.530;13.390;2023-09-19T08:30:34;24.40;99.90
19728;DHT22;10015;52.530;13.390;2023-09-19T08:33:01;24.40;99.90
19728;DHT22;10015;52.530;13.390;2023-09-19T08:35:30;24.40;99.90
19728;DHT22;10015;52.530;13.390;2023-09-19T08:37:57;24.60;99.90
19728;DHT22;10015;52.530;13.390;2023-09-19T08:40:23;24.70;99.90
19728;DHT22;10015;52.530;13.390;2023-09-19T08:42:55;24.90;99.90
19728;DHT22;10015;52.530;13.390;2023-09-19T08:45:24;25.20;99.90
19728;DHT22;10015;52.530;13.390;2023-09-19T08:48:24;25.40;99.90
19728;DHT22;10015;52.530;13.390;2023-09-19T08:51:00;25.50;99.90
19728;DHT22;10015;52.530;13.390;2023-09-19T08:53:31;25.80;99.90
19728;DHT22;10015;52.530;13.390;2023-09-19T08:56:03;25.90;99.90
19728;DHT22;10015;52.530;13.390;2023-09-19T08:59:02;25.90;99.90
19728;DHT22;10015;52.530;13.390;2023-09-19T09:01:29;26.00;99.90
19728;DHT22;10015;52.530;13.390;2023-09-19T09:03:59;25.80;99.90
19728;DHT22;10015;52.530;13.390;2023-09-19T09:06:26;25.70;99.90
19728;DHT22;10015;52.530;13.390;2023-09-19T09:08:54;25.50;99.90
19728;DHT22;10015;52.530;13.390;2023-09-19T09:11:21;25.40;99.90
19728;DHT22;10015;52.530;13.390;2023-09-19T09:13:49;25.40;99.90
19728;DHT22;10015;52.530;13.390;2023-09-19T09:16:17;25.50;99.90
19728;DHT22;10015;52.530;13.390;2023-09-19T09:18:49;25.60;99.90
19728;DHT22;10015;52.530;13.390;2023-09-19T09:22:18;25.60;99.90
19728;DHT22;10015;52.530;13.390;2023-09-19T09:24:54;25.60;99.90
19728;DHT22;10015;52.530;13.390;2023-09-19T09:27:24;25.60;99.90
19728;DHT22;10015;52.530;13.390;2023-09-19T09:29:51;25.70;99.90
19728;DHT22;10015;52.530;13.390;2023-09-19T09:32:24;25.90;99.90
19728;DHT22;10015;52.530;13.390;2023-09-19T09:37:59;26.30;99.90
19728;DHT22;10015;52.530;13.390;2023-09-19T09:40:49;26.60;99.90
19728;DHT22;10015;52.530;13.390;2023-09-19T09:43:39;26.70;99.90
19728;DHT22;10015;52.530;13.390;2023-09-19T09:46:17;26.90;99.90
19728;DHT22;10015;52.530;13.390;2023-09-19T09:49:05;27.00;99.90
19728;DHT22;10015;52.530;13.390;2023-09-19T09:52:06;27.10;99.90
19728;DHT22;10015;52.530;13.390;2023-09-19T09:55:01;27.10;99.90
19728;DHT22;10015;52.530;13.390;2023-09-19T09:57:32;27.10;99.90
19728;DHT22;10015;52.530;13.390;2023-09-19T10:00:00;27.30;99.90
19728;DHT22;10015;52.530;13.390;2023-09-19T10:02:39;27.50;99.90
19728;DHT22;10015;52.530;13.390;2023-09-19T10:05:17;27.60;99.90
19728;DHT22;10015;52.530;13.390;2023-09-19T10:07:49;27.70;99.90
19728;DHT22;10015;52.530;13.390;2023-09-19T10:13:10;27.70;99.90
19728;DHT22;10015;52.530;13.390;2023-09-19T10:15:48;27.60;99.90
19728;DHT22;10015;52.530;13.390;2023-09-19T10:18:24;27.70;99.90
19728;DHT22;10015;52.530;13.390;2023-09-19T10:20:52;27.80;99.90
19728;DHT22;10015;52.530;13.390;2023-09-19T10:23:20;28.00;99.90
19728;DHT22;10015;52.530;13.390;2023-09-19T10:25:55;27.80;99.90
19728;DHT22;10015;52.530;13.390;2023-09-19T10:28:23;27.50;99.90
19728;DHT22;10015;52.530;13.390;2023-09-19T10:31:00;27.20;99.90
19728;DHT22;10015;52.530;13.390;2023-09-19T10:33:35;27.10;99.90
19728;DHT22;10015;52.530;13.390;2023-09-19T10:36:05;26.90;99.90
19728;DHT22;10015;52.530;13.390;2023-09-19T10:38:34;26.70;99.90
19728;DHT22;10015;52.530;13.390;2023-09-19T10:41:02;26.50;99.90
19728;DHT22;10015;52.530;13.390;2023-09-19T10:43:30;26.40;99.90
19728;DHT22;10015;52.530;13.390;2023-09-19T10:46:06;26.50;99.90
19728;DHT22;10015;52.530;13.390;2023-09-19T10:48:34;26.40;99.90
19728;DHT22;10015;52.530;13.390;2023-09-19T10:51:11;26.60;99.90
19728;DHT22;10015;52.530;13.390;2023-09-19T10:53:50;26.70;99.90
19728;DHT22;10015;52.530;13.390;2023-09-19T10:56:37;26.70;99.90
19728;DHT22;10015;52.530;13.390;2023-09-19T10:59:18;26.90;99.90
19728;DHT22;10015;52.530;13.390;2023-09-19T11:01:51;26.80;99.80
19728;DHT22;10015;52.530;13.390;2023-09-19T11:07:14;26.40;99.90
19728;DHT22;10015;52.530;13.390;2023-09-19T11:09:54;26.20;99.90
19728;DHT22;10015;52.530;13.390;2023-09-19T11:15:06;25.80;99.90
19728;DHT22;10015;52.530;13.390;2023-09-19T11:17:44;25.70;99.90
19728;DHT22;10015;52.530;13.390;2023-09-19T11:30:50;25.20;99.90
19728;DHT22;10015;52.530;13.390;2023-09-19T11:33:27;25.10;99.90
19728;DHT22;10015;52.530;13.390;2023-09-19T11:43:52;25.20;99.90
19728;DHT22;10015;52.530;13.390;2023-09-19T11:46:21;25.30;99.90
19728;DHT22;10015;52.530;13.390;2023-09-19T11:48:48;25.30;99.90
19728;DHT22;10015;52.530;13.390;2023-09-19T11:51:23;25.20;99.60
19728;DHT22;10015;52.530;13.390;2023-09-19T11:53:57;25.30;99.70
19728;DHT22;10015;52.530;13.390;2023-09-19T11:56:26;25.40;99.90
19728;DHT22;10015;52.530;13.390;2023-09-19T11:58:58;25.40;99.70
19728;DHT22;10015;52.530;13.390;2023-09-19T12:01:30;25.50;99.90
19728;DHT22;10015;52.530;13.390;2023-09-19T12:03:59;25.60;99.80
19728;DHT22;10015;52.530;13.390;2023-09-19T12:06:29;25.60;99.90
19728;DHT22;10015;52.530;13.390;2023-09-19T12:09:03;25.70;99.80
19728;DHT22;10015;52.530;13.390;2023-09-19T12:11:32;25.70;99.80
19728;DHT22;10015;52.530;13.390;2023-09-19T12:14:03;25.60;99.60
19728;DHT22;10015;52.530;13.390;2023-09-19T12:16:29;25.60;99.40
19728;DHT22;10015;52.530;13.390;2023-09-19T12:19:18;25.50;99.10
19728;DHT22;10015;52.530;13.390;2023-09-19T12:22:01;25.40;99.30
19728;DHT22;10015;52.530;13.390;2023-09-19T12:24:33;25.40;99.20
19728;DHT22;10015;52.530;13.390;2023-09-19T12:27:05;25.30;99.00
19728;DHT22;10015;52.530;13.390;2023-09-19T12:29:47;25.40;99.10
19728;DHT22;10015;52.530;13.390;2023-09-19T12:32:36;25.30;98.80
19728;DHT22;10015;52.530;13.390;2023-09-19T12:35:09;25.40;99.00
19728;DHT22;10015;52.530;13.390;2023-09-19T12:37:45;25.40;99.00
19728;DHT22;10015;52.530;13.390;2023-09-19T12:40:21;25.40;98.10
19728;DHT22;10015;52.530;13.390;2023-09-19T12:42:57;25.50;98.40
19728;DHT22;10015;52.530;13.390;2023-09-19T12:45:24;25.40;97.90
19728;DHT22;10015;52.530;13.390;2023-09-19T12:48:22;25.50;97.80
19728;DHT22;10015;52.530;13.390;2023-09-19T12:51:06;25.40;97.70
19728;DHT22;10015;52.530;13.390;2023-09-19T12:53:35;25.30;97.70
19728;DHT22;10015;52.530;13.390;2023-09-19T12:56:09;25.20;98.30
19728;DHT22;10015;52.530;13.390;2023-09-19T12:58:58;25.30;98.60
19728;DHT22;10015;52.530;13.390;2023-09-19T13:01:29;25.20;98.20
19728;DHT22;10015;52.530;13.390;2023-09-19T13:04:21;25.10;98.00
19728;DHT22;10015;52.530;13.390;2023-09-19T13:06:54;25.00;97.90
19728;DHT22;10015;52.530;13.390;2023-09-19T13:09:22;25.00;98.30
19728;DHT22;10015;52.530;13.390;2023-09-19T13:11:55;24.90;98.30
19728;DHT22;10015;52.530;13.390;2023-09-19T13:14:25;24.80;98.40
19728;DHT22;10015;52.530;13.390;2023-09-19T13:22:41;24.70;99.20
19728;DHT22;10015;52.530;13.390;2023-09-19T13:25:13;24.60;99.20
19728;DHT22;10015;52.530;13.390;2023-09-19T13:27:42;24.70;99.40
19728;DHT22;10015;52.530;13.390;2023-09-19T13:30:11;24.60;99.50
19728;DHT22;10015;52.530;13.390;2023-09-19T13:32:37;24.40;99.00
19728;DHT22;10015;52.530;13.390;2023-09-19T13:35:05;24.50;98.90
19728;DHT22;10015;52.530;13.390;2023-09-19T13:37:33;24.30;99.00
19728;DHT22;10015;52.530;13.390;2023-09-19T13:40:00;24.30;98.60
19728;DHT22;10015;52.530;13.390;2023-09-19T13:42:26;24.30;98.90
19728;DHT22;10015;52.530;13.390;2023-09-19T13:44:55;24.30;99.30
19728;DHT22;10015;52.530;13.390;2023-09-19T13:47:22;24.20;99.10
19728;DHT22;10015;52.530;13.390;2023-09-19T13:49:51;24.20;99.30
19728;DHT22;10015;52.530;13.390;2023-09-19T13:52:20;24.20;99.30
19728;DHT22;10015;52.530;13.390;2023-09-19T13:54:47;24.20;99.50
19728;DHT22;10015;52.530;13.390;2023-09-19T13:57:14;24.10;99.40
19728;DHT22;10015;52.530;13.390;2023-09-19T13:59:42;24.00;99.60
19728;DHT22;10015;52.530;13.390;2023-09-19T14:02:08;23.90;99.20
19728;DHT22;10015;52.530;13.390;2023-09-19T14:04:35;23.90;99.20
19728;DHT22;10015;52.530;13.390;2023-09-19T14:07:03;23.90;99.20
19728;DHT22;10015;52.530;13.390;2023-09-19T14:09:29;23.80;99.50
19728;DHT22;10015;52.530;13.390;2023-09-19T14:11:56;24.00;99.40
19728;DHT22;10015;52.530;13.390;2023-09-19T14:14:22;24.00;99.40
19728;DHT22;10015;52.530;13.390;2023-09-19T14:16:50;24.00;99.50
19728;DHT22;10015;52.530;13.390;2023-09-19T14:19:18;24.00;99.60
19728;DHT22;10015;52.530;13.390;2023-09-19T14:21:44;24.10;99.40
19728;DHT22;10015;52.530;13.390;2023-09-19T14:24:10;24.20;99.40
19728;DHT22;10015;52.530;13.390;2023-09-19T14:26:38;24.20;99.30
19728;DHT22;10015;52.530;13.390;2023-09-19T14:29:04;24.20;99.30
19728;DHT22;10015;52.530;13.390;2023-09-19T14:31:36;24.00;99.60
19728;DHT22;10015;52.530;13.390;2023-09-19T14:34:03;23.80;99.70
19728;DHT22;10015;52.530;13.390;2023-09-19T14:36:31;23.80;99.90
19728;DHT22;10015;52.530;13.390;2023-09-19T14:38:58;23.80;99.90
19728;DHT22;10015;52.530;13.390;2023-09-19T14:41:24;23.90;99.90
19728;DHT22;10015;52.530;13.390;2023-09-19T14:43:52;23.80;99.80
19728;DHT22;10015;52.530;13.390;2023-09-19T14:46:18;23.90;99.90
19728;DHT22;10015;52.530;13.390;2023-09-19T14:48:45;23.90;99.90
19728;DHT22;10015;52.530;13.390;2023-09-19T14:51:14;23.90;99.90
19728;DHT22;10015;52.530;13.390;2023-09-19T14:53:42;23.90;99.90
19728;DHT22;10015;52.530;13.390;2023-09-19T14:56:09;23.90;99.90
19728;DHT22;10015;52.530;13.390;2023-09-19T14:58:35;23.70;99.90
19728;DHT22;10015;52.530;13.390;2023-09-19T15:01:07;23.70;99.90
19728;DHT22;10015;52.530;13.390;2023-09-19T15:03:34;23.80;99.90
19728;DHT22;10015;52.530;13.390;2023-09-19T15:06:04;23.80;99.90
19728;DHT22;10015;52.530;13.390;2023-09-19T15:08:31;23.70;99.90
19728;DHT22;10015;52.530;13.390;2023-09-19T15:10:57;23.70;99.90
19728;DHT22;10015;52.530;13.390;2023-09-19T15:13:27;23.70;99.90
19728;DHT22;10015;52.530;13.390;2023-09-19T15:16:04;23.60;99.90
19728;DHT22;10015;52.530;13.390;2023-09-19T15:18:30;23.60;99.90
19728;DHT22;10015;52.530;13.390;2023-09-19T15:21:12;23.50;99.90
19728;DHT22;10015;52.530;13.390;2023-09-19T15:23:39;23.50;99.90
19728;DHT22;10015;52.530;13.390;2023-09-19T15:26:07;23.50;99.90
19728;DHT22;10015;52.530;13.390;2023-09-19T15:28:34;23.60;99.90
19728;DHT22;10015;52.530;13.390;2023-09-19T15:31:06;23.50;99.90
19728;DHT22;10015;52.530;13.390;2023-09-19T15:33:33;23.40;99.90
19728;DHT22;10015;52.530;13.390;2023-09-19T15:36:03;23.40;99.90
19728;DHT22;10015;52.530;13.390;2023-09-19T15:38:30;23.30;99.90
19728;DHT22;10015;52.530;13.390;2023-09-19T15:41:00;23.30;99.90
19728;DHT22;10015;52.530;13.390;2023-09-19T15:43:30;23.40;99.90
19728;DHT22;10015;52.530;13.390;2023-09-19T15:45:56;23.40;99.90
19728;DHT22;10015;52.530;13.390;2023-09-19T15:48:22;23.40;99.90
19728;DHT22;10015;52.530;13.390;2023-09-19T15:50:48;23.30;99.90
19728;DHT22;10015;52.530;13.390;2023-09-19T15:53:15;23.30;99.90
19728;DHT22;10015;52.530;13.390;2023-09-19T15:55:42;23.10;99.90
19728;DHT22;10015;52.530;13.390;2023-09-19T15:58:09;23.10;99.90
19728;DHT22;10015;52.530;13.390;2023-09-19T16:00:39;23.10;99.90
19728;DHT22;10015;52.530;13.390;2023-09-19T16:03:06;23.10;99.90
19728;DHT22;10015;52.530;13.390;2023-09-19T16:05:36;23.20;99.90
19728;DHT22;10015;52.530;13.390;2023-09-19T16:08:04;23.20;99.90
19728;DHT22;10015;52.530;13.390;2023-09-19T16:10:34;23.20;99.90
19728;DHT22;10015;52.530;13.390;2023-09-19T16:13:01;23.20;99.90
19728;DHT22;10015;52.530;13.390;2023-09-19T16:15:28;23.10;99.90
19728;DHT22;10015;52.530;13.390;2023-09-19T16:17:55;23.10;99.90
19728;DHT22;10015;52.530;13.390;2023-09-19T16:20:22;23.10;99.90
19728;DHT22;10015;52.530;13.390;2023-09-19T16:22:49;23.10;99.90
19728;DHT22;10015;52.530;13.390;2023-09-19T16:25:15;23.00;99.90
19728;DHT22;10015;52.530;13.390;2023-09-19T16:27:41;23.00;99.90
19728;DHT22;10015;52.530;13.390;2023-09-19T16:30:07;22.90;99.90
19728;DHT22;10015;52.530;13.390;2023-09-19T16:32:35;22.80;99.90